Current Weather

Gila Bend Af Aux

Gila Bend, Arizona (KGXF)

Report from: Sunday, April 21, 2024 7:55 PM UTC
Current time: Sunday, April 21, 2024 8:58 PM UTC

Nearby weather – Weather history – Daily summaries
Weather forecast

Temperature34.8°C (94.6°F)
Heat index32.2°C (90.0°F)
Dew point0.0°C (32.0°F)
Winds 4 kts (2.1 m/s, 4.6 mph) East-Northeast (60°)
Visibility10 mi. (16.1 km)
Clouds Sky clear
Altimeter29.90 in.Hg (1013 mB)
Relative humidity11 %
Density altitude2,411 ft. (735 m)
Sea-level pressure101.1 kPa (1011 mB, 29.86 in.Hg)
Remarks Fully automated report
System requires maintenance
Automated weather observing station with precipitation discriminator
Freezing rain sensor not operating
Flight conditions Visual Meteorological Conditions
Raw dataKGXF 211955Z AUTO 06004KT 10SM CLR 35/00 A2990 RMK AO2 SLP113 T03480000 FZRANO $
An error has occurred. This application may no longer respond until reloaded. Reload 🗙